Norris, South Dakota
Current Conditions -  °F | °C
As of 11:55 PM on Tuesday 21 Oct 2014 (Local Time) from KPHP Reporting Station
Scattered Clouds Scattered Clouds  
Wind Chill: 70°   Ceiling: Unl
Heat Index: 70°   Visibility: 10mi
Dew Point: 50°   Wind: 18mph
Humidity: 49%   Direction: 210°SSW
Pressure: 29.74"   Gusts: 26mph
Location:  43.47°N, 101.2°W
Report Text: KPHP 220555Z AUTO 21016G23KT 10SM SCT110 21/10 A2974 RMK AO2 SLP049 T02110100 10233 20156 58001
Loading
Personal Weather Stations






























Interactive Weather Map
Tropical Storm Tracking
New forecast layout! Learn more

10-Day Weather Forecast

Advertisements
Track Severe Weather on mobile